Time;durP1;ratioP1;P1;durP2;ratioP2;P2;SDS_P1;SDS_P2;PMS_P1;PMS_P2;Temp;Humidity;BMP_temperature;BMP_pressure;BME280_temperature;BME280_humidity;BME280_pressure;Samples;Min_cycle;Max_cycle;Signal;HPM_P1;HPM_P2
2023/07/21 00:01:05;;;;;;;3.80;2.90;;;;;;;18.28;100.00;94850.75;4987409;28;20113;-88
2023/07/21 00:03:32;;;;;;;4.10;3.60;;;;;;;17.81;100.00;94893.44;4989129;28;20030;-89
2023/07/21 00:05:59;;;;;;;6.20;2.88;;;;;;;18.12;100.00;94903.78;4970981;28;20029;-87
2023/07/21 00:08:26;;;;;;;4.45;3.10;;;;;;;18.17;100.00;94885.56;4988791;28;20042;-86
2023/07/21 00:10:51;;;;;;;4.07;3.10;;;;;;;18.23;100.00;94887.34;4987066;28;20030;-86
2023/07/21 00:13:16;;;;;;;5.72;2.90;;;;;;;18.22;100.00;94875.25;4989001;28;20492;-85
2023/07/21 00:15:44;;;;;;;4.32;3.03;;;;;;;18.41;100.00;94866.34;4988072;28;20025;-87
2023/07/21 00:18:10;;;;;;;4.85;3.30;;;;;;;18.42;100.00;94846.97;4987307;28;20467;-87
2023/07/21 00:20:35;;;;;;;3.17;2.88;;;;;;;18.50;100.00;94855.56;4988800;28;20088;-86
2023/07/21 00:23:01;;;;;;;3.40;3.03;;;;;;;18.58;100.00;94876.25;4988333;28;20026;-87
2023/07/21 00:25:26;;;;;;;5.65;3.30;;;;;;;18.37;100.00;94890.59;4988383;28;20519;-87
2023/07/21 00:27:52;;;;;;;3.15;2.88;;;;;;;18.51;100.00;94892.06;4986661;28;20488;-86
2023/07/21 00:30:19;;;;;;;6.25;3.25;;;;;;;18.41;100.00;94878.63;4989667;28;20035;-86
2023/07/21 00:32:44;;;;;;;5.07;3.15;;;;;;;18.27;100.00;94875.38;4987149;28;20447;-87
2023/07/21 00:35:10;;;;;;;4.35;3.30;;;;;;;18.23;100.00;94878.66;4989061;28;20547;-86
2023/07/21 00:37:36;;;;;;;3.47;3.10;;;;;;;18.36;100.00;94879.31;4989763;28;20058;-87
2023/07/21 00:40:04;;;;;;;3.47;3.17;;;;;;;18.48;100.00;94902.16;4988044;28;20025;-86
2023/07/21 00:42:32;;;;;;;4.57;3.17;;;;;;;18.40;100.00;94896.19;4989673;28;20034;-85
2023/07/21 00:44:58;;;;;;;4.47;3.30;;;;;;;18.32;100.00;94883.41;4987623;28;20399;-87
2023/07/21 00:47:24;;;;;;;4.20;3.50;;;;;;;18.31;100.00;94876.53;4988145;28;20042;-85
2023/07/21 00:49:50;;;;;;;3.83;3.42;;;;;;;18.36;100.00;94868.03;4986909;28;20034;-86
2023/07/21 00:52:18;;;;;;;5.30;3.65;;;;;;;18.29;100.00;94869.91;4987739;28;20450;-84
2023/07/21 00:54:44;;;;;;;4.03;3.00;;;;;;;18.19;100.00;94885.38;4987640;28;20026;-86
2023/07/21 00:57:10;;;;;;;5.85;3.78;;;;;;;18.23;100.00;94889.97;4969983;28;20034;-87
2023/07/21 00:59:36;;;;;;;4.40;3.17;;;;;;;18.43;100.00;94885.25;4987941;28;20091;-86
2023/07/21 01:02:03;;;;;;;7.15;3.55;;;;;;;18.29;100.00;94864.69;4987127;28;20511;-86
2023/07/21 01:04:30;;;;;;;3.15;2.85;;;;;;;18.04;100.00;94884.94;4989885;28;20415;-87
2023/07/21 01:06:57;;;;;;;5.28;3.05;;;;;;;18.04;100.00;94911.94;4986258;28;20034;-85
2023/07/21 01:09:23;;;;;;;4.22;3.65;;;;;;;17.99;100.00;94929.31;4970814;28;20430;-87
2023/07/21 01:11:49;;;;;;;4.03;3.15;;;;;;;17.80;100.00;94923.25;4988233;28;20022;-86
2023/07/21 01:14:14;;;;;;;13.57;3.88;;;;;;;17.66;100.00;94943.53;4986956;28;20029;-87
2023/07/21 01:16:43;;;;;;;4.45;3.95;;;;;;;17.77;100.00;94968.25;4987747;28;20030;-86
2023/07/21 01:19:13;;;;;;;5.50;3.10;;;;;;;18.04;100.00;94938.16;4986094;28;20029;-86
2023/07/21 01:21:46;;;;;;;7.25;3.90;;;;;;;18.00;100.00;94916.03;4987882;28;20038;-86
2023/07/21 01:24:51;;;;;;;7.25;4.22;;;;;;;17.81;100.00;94928.31;4985901;28;20050;-87
2023/07/21 01:27:22;;;;;;;4.68;4.28;;;;;;;17.55;100.00;94939.00;4988297;28;20041;-87
2023/07/21 01:29:49;;;;;;;3.45;3.17;;;;;;;17.64;100.00;94963.09;4987662;28;20522;-86
2023/07/21 01:32:19;;;;;;;8.00;3.47;;;;;;;17.53;100.00;94969.78;4985507;28;20053;-87
2023/07/21 01:34:44;;;;;;;5.22;3.72;;;;;;;17.39;100.00;94976.97;4987793;28;20038;-87
2023/07/21 01:37:11;;;;;;;5.90;3.88;;;;;;;17.32;100.00;94991.91;4985656;28;20026;-88
2023/07/21 01:39:38;;;;;;;6.93;4.10;;;;;;;17.43;100.00;95007.97;4987363;28;20475;-85
2023/07/21 01:42:05;;;;;;;4.65;4.18;;;;;;;17.40;100.00;95023.06;4987909;28;20428;-87
2023/07/21 01:44:31;;;;;;;5.93;3.63;;;;;;;17.54;100.00;95028.22;4986718;28;20038;-86
2023/07/21 01:46:57;;;;;;;8.23;3.60;;;;;;;17.63;100.00;95000.78;4971161;28;20027;-87
2023/07/21 01:49:22;;;;;;;5.72;4.00;;;;;;;17.52;100.00;94996.22;4987095;28;20026;-86
2023/07/21 01:51:49;;;;;;;4.90;3.60;;;;;;;17.38;100.00;95017.25;4987798;28;20177;-86
2023/07/21 01:54:41;;;;;;;6.70;4.07;;;;;;;17.20;100.00;95035.47;4969507;28;20471;-88
2023/07/21 01:57:07;;;;;;;5.03;4.07;;;;;;;17.12;100.00;95059.25;4987523;28;20042;-87
2023/07/21 01:59:33;;;;;;;4.50;3.72;;;;;;;17.17;100.00;95090.06;4970555;28;20097;-87
2023/07/21 02:01:59;;;;;;;4.35;3.95;;;;;;;17.29;100.00;95075.31;4986770;28;20022;-89
2023/07/21 02:04:25;;;;;;;4.55;3.90;;;;;;;17.58;100.00;95073.97;4987117;28;20412;-85
2023/07/21 02:06:51;;;;;;;4.70;4.07;;;;;;;17.49;100.00;95049.81;4985695;28;20394;-86
2023/07/21 02:09:17;;;;;;;7.75;4.20;;;;;;;17.30;100.00;95063.84;4990442;28;20026;-86
2023/07/21 02:11:44;;;;;;;4.82;3.45;;;;;;;17.19;100.00;95081.00;4989775;28;20023;-92
2023/07/21 02:14:10;;;;;;;6.55;4.07;;;;;;;17.38;100.00;95089.75;4991293;28;20045;-88
2023/07/21 02:16:37;;;;;;;5.72;4.75;;;;;;;17.40;100.00;95062.34;4991035;28;20034;-88
2023/07/21 02:19:05;;;;;;;6.28;5.55;;;;;;;17.55;100.00;95063.88;4991958;28;20065;-88
2023/07/21 02:21:31;;;;;;;5.03;3.90;;;;;;;17.37;100.00;95061.97;4990789;28;20026;-89
2023/07/21 02:23:56;;;;;;;8.60;4.75;;;;;;;17.50;100.00;95050.63;4990514;28;20138;-87
2023/07/21 02:26:22;;;;;;;7.10;4.20;;;;;;;17.65;100.00;95059.03;4992386;28;20026;-88
2023/07/21 02:28:47;;;;;;;7.53;4.30;;;;;;;17.62;100.00;95046.34;4990216;28;20521;-87
2023/07/21 02:31:12;;;;;;;5.45;4.60;;;;;;;17.75;100.00;95054.13;4991768;28;20034;-87
2023/07/21 02:33:38;;;;;;;4.10;3.78;;;;;;;17.73;100.00;95040.41;4989985;28;20122;-88
2023/07/21 02:36:05;;;;;;;7.50;4.18;;;;;;;17.63;100.00;95034.84;4992273;28;20045;-88
2023/07/21 02:38:30;;;;;;;6.40;3.35;;;;;;;17.55;100.00;95037.69;4989814;28;20050;-88
2023/07/21 02:41:02;;;;;;;4.78;3.97;;;;;;;17.75;100.00;95038.41;4989634;28;20058;-86
2023/07/21 02:43:28;;;;;;;6.68;4.55;;;;;;;17.70;100.00;95019.88;4990517;28;20039;-89
2023/07/21 02:45:54;;;;;;;5.05;3.80;;;;;;;17.78;100.00;95025.69;4988052;28;20418;-87
2023/07/21 02:48:20;;;;;;;4.40;4.00;;;;;;;17.86;100.00;95021.97;4990725;28;20034;-87
2023/07/21 02:50:51;;;;;;;7.07;4.28;;;;;;;17.81;100.00;95021.81;4988218;28;20089;-88
2023/07/21 02:53:18;;;;;;;4.78;4.13;;;;;;;17.85;100.00;95017.78;4991688;28;20030;-87
2023/07/21 02:55:44;;;;;;;4.32;3.92;;;;;;;17.86;100.00;95007.06;4989451;28;20495;-87
2023/07/21 02:58:11;;;;;;;5.43;4.65;;;;;;;17.61;100.00;95005.44;4988244;28;20038;-88
2023/07/21 03:00:37;;;;;;;6.65;3.67;;;;;;;17.64;100.00;95021.53;4991326;28;20026;-86
2023/07/21 03:03:04;;;;;;;4.32;3.72;;;;;;;17.76;100.00;95037.38;4990001;28;20023;-88
2023/07/21 03:05:30;;;;;;;6.22;4.60;;;;;;;17.74;100.00;95027.13;4990130;28;20125;-88
2023/07/21 03:07:56;;;;;;;5.70;4.05;;;;;;;17.79;100.00;95032.50;4989645;28;20142;-88
2023/07/21 03:10:22;;;;;;;5.30;4.60;;;;;;;17.70;100.00;95032.97;4991125;28;20438;-89
2023/07/21 03:12:47;;;;;;;6.63;4.82;;;;;;;17.38;100.00;95064.38;4972302;28;20026;-88
2023/07/21 03:15:13;;;;;;;6.72;4.40;;;;;;;17.42;100.00;95090.97;4989697;28;20054;-89
2023/07/21 03:17:38;;;;;;;5.57;4.20;;;;;;;17.52;100.00;95075.59;4990682;28;20264;-86
2023/07/21 03:20:11;;;;;;;6.97;4.35;;;;;;;17.52;100.00;95078.22;4989372;28;20022;-87
2023/07/21 03:22:36;;;;;;;6.88;4.47;;;;;;;17.46;100.00;95088.72;4989874;28;20515;-88
2023/07/21 03:25:05;;;;;;;9.27;5.70;;;;;;;17.57;100.00;95080.22;4987719;28;20065;-86
2023/07/21 03:27:30;;;;;;;8.60;5.50;;;;;;;17.67;100.00;95073.50;4991084;28;20029;-86
2023/07/21 03:29:56;;;;;;;7.03;5.00;;;;;;;17.81;100.00;95042.78;4989057;28;20035;-87
2023/07/21 03:32:21;;;;;;;6.43;4.40;;;;;;;17.96;100.00;95019.69;4989224;28;20022;-87
2023/07/21 03:34:52;;;;;;;7.72;4.43;;;;;;;17.64;100.00;95005.81;4988821;28;20028;-88
2023/07/21 03:37:18;;;;;;;5.40;4.93;;;;;;;17.48;100.00;95034.31;4989721;28;20101;-88
2023/07/21 03:39:44;;;;;;;7.55;5.00;;;;;;;17.52;100.00;95080.03;4990696;28;20030;-88
2023/07/21 03:42:10;;;;;;;5.30;4.20;;;;;;;17.73;100.00;95071.84;4987979;28;20026;-87
2023/07/21 03:44:35;;;;;;;5.40;4.30;;;;;;;17.97;100.00;95052.75;4989438;28;20065;-87
2023/07/21 03:47:00;;;;;;;6.15;3.42;;;;;;;18.15;100.00;95010.03;4987306;28;20052;-86
2023/07/21 03:49:26;;;;;;;5.32;4.00;;;;;;;18.04;100.00;94984.53;4989194;28;20057;-85
2023/07/21 03:51:51;;;;;;;10.05;4.93;;;;;;;17.76;100.00;95004.13;4989503;28;20105;-84
2023/07/21 03:54:17;;;;;;;8.52;7.72;;;;;;;17.88;100.00;95033.84;4989857;28;20096;-87
2023/07/21 03:56:43;;;;;;;7.35;6.25;;;;;;;17.96;100.00;95029.34;4988915;28;20027;-86
2023/07/21 03:59:08;;;;;;;8.77;5.30;;;;;;;17.94;100.00;95036.66;4988787;28;20034;-87
2023/07/21 04:01:33;;;;;;;6.95;6.22;;;;;;;17.95;100.00;95044.28;4989397;28;20026;-88
2023/07/21 04:03:59;;;;;;;7.47;6.53;;;;;;;18.06;100.00;95040.97;4988491;28;20486;-86
2023/07/21 04:06:24;;;;;;;7.80;5.10;;;;;;;18.28;100.00;95020.41;4990299;28;20499;-87
2023/07/21 04:08:53;;;;;;;5.78;4.32;;;;;;;18.16;100.00;94999.34;4988770;28;20022;-87
2023/07/21 04:11:19;;;;;;;5.88;4.25;;;;;;;18.34;100.00;95016.91;4988897;28;20023;-87
2023/07/21 04:13:44;;;;;;;4.55;4.15;;;;;;;18.35;100.00;95008.03;4989464;28;20035;-88
2023/07/21 04:16:11;;;;;;;5.55;4.65;;;;;;;18.79;100.00;95015.66;4988855;28;20045;-87
2023/07/21 04:18:37;;;;;;;3.85;3.45;;;;;;;19.02;100.00;94902.09;4990235;28;20515;-86
2023/07/21 04:21:03;;;;;;;5.53;3.85;;;;;;;18.62;100.00;94914.16;4988202;28;20050;-88
2023/07/21 04:23:28;;;;;;;5.78;4.53;;;;;;;18.86;100.00;94950.75;4989974;28;20077;-84
2023/07/21 04:25:54;;;;;;;4.55;3.55;;;;;;;20.39;100.00;94771.88;4988331;28;20076;-83
2023/07/21 04:28:19;;;;;;;8.80;3.90;;;;;;;20.50;100.00;94792.91;4989551;28;20026;-84
2023/07/21 04:30:47;;;;;;;3.95;3.20;;;;;;;21.83;100.00;94707.69;4988319;28;20053;-82
2023/07/21 04:33:13;;;;;;;5.43;2.90;;;;;;;22.49;100.00;94680.19;4988574;28;20081;-79
2023/07/21 04:35:48;;;;;;;5.15;3.08;;;;;;;22.27;100.00;94649.63;4989463;28;20165;-83
2023/07/21 04:38:14;;;;;;;6.43;3.08;;;;;;;22.43;100.00;94654.81;4987931;28;20049;-80
2023/07/21 04:40:44;;;;;;;5.75;2.55;;;;;;;23.77;100.00;94627.06;4989528;28;20049;-84
2023/07/21 04:43:11;;;;;;;4.28;2.40;;;;;;;25.45;100.00;94611.69;4986574;28;20097;-83
2023/07/21 04:45:40;;;;;;;5.53;2.97;;;;;;;26.15;100.00;94604.44;4989639;28;20030;-84
2023/07/21 04:48:06;;;;;;;4.35;2.30;;;;;;;26.77;100.00;94593.09;4988209;28;20121;-84
2023/07/21 04:50:31;;;;;;;2.67;1.70;;;;;;;27.29;100.00;94594.19;4988750;28;20084;-84
2023/07/21 04:52:57;;;;;;;4.82;2.17;;;;;;;27.81;98.31;94598.59;4989147;28;20026;-83
2023/07/21 04:55:22;;;;;;;3.00;1.90;;;;;;;28.54;94.25;94588.25;4987810;28;20033;-84
2023/07/21 04:57:48;;;;;;;3.38;2.30;;;;;;;28.55;92.38;94590.59;4989287;28;20451;-84
2023/07/21 05:00:15;;;;;;;5.97;2.65;;;;;;;28.09;97.55;94597.72;4987582;28;20027;-84
2023/07/21 05:02:40;;;;;;;2.40;2.20;;;;;;;28.89;95.02;94608.22;4988077;28;20034;-84
2023/07/21 05:05:07;;;;;;;4.15;2.28;;;;;;;29.08;92.82;94607.06;4986787;28;20565;-84
2023/07/21 05:07:33;;;;;;;4.45;2.67;;;;;;;29.05;90.51;94601.53;4989117;28;20495;-84
2023/07/21 05:09:58;;;;;;;4.88;2.13;;;;;;;28.96;90.90;94603.28;4987213;28;20034;-84
2023/07/21 05:12:24;;;;;;;5.43;2.42;;;;;;;29.50;89.65;94618.59;4986822;28;20057;-84
2023/07/21 05:14:50;;;;;;;3.03;2.70;;;;;;;29.86;86.16;94613.34;4987979;28;20034;-84
2023/07/21 05:17:16;;;;;;;5.20;2.70;;;;;;;30.47;84.23;94618.16;4987574;28;20029;-84
2023/07/21 05:19:43;;;;;;;3.08;2.88;;;;;;;30.64;82.65;94611.03;4988401;28;20030;-83
2023/07/21 05:22:09;;;;;;;2.83;2.33;;;;;;;31.88;78.08;94605.66;4987487;28;20038;-83
2023/07/21 05:24:34;;;;;;;3.87;2.80;;;;;;;30.93;80.06;94620.50;4988845;28;20097;-84
2023/07/21 05:27:00;;;;;;;7.43;3.07;;;;;;;31.62;74.23;94603.69;4987890;28;20026;-84
2023/07/21 05:29:25;;;;;;;3.40;3.10;;;;;;;31.67;73.52;94610.78;4988269;28;20030;-84
2023/07/21 05:31:52;;;;;;;3.37;2.90;;;;;;;32.53;69.69;94618.94;4988670;28;20057;-84
2023/07/21 05:34:17;;;;;;;7.72;3.40;;;;;;;32.98;66.88;94616.72;4987310;28;20042;-83
2023/07/21 05:36:43;;;;;;;4.17;3.30;;;;;;;32.53;64.76;94622.44;4989068;28;20471;-83
2023/07/21 05:39:08;;;;;;;6.77;3.00;;;;;;;34.35;59.42;94630.38;4985951;28;20511;-83
2023/07/21 05:41:33;;;;;;;4.00;2.83;;;;;;;34.78;56.21;94629.22;4987244;28;20553;-85
2023/07/21 05:43:59;;;;;;;4.07;3.00;;;;;;;35.19;56.45;94625.69;4989948;28;20034;-84
2023/07/21 05:46:24;;;;;;;4.43;2.20;;;;;;;36.14;52.91;94626.09;4992542;28;20415;-85
2023/07/21 05:48:50;;;;;;;2.63;2.43;;;;;;;37.49;48.68;94630.69;4991845;28;20030;-85
2023/07/21 05:51:17;;;;;;;4.30;2.57;;;;;;;37.73;45.92;94633.19;4990448;28;20030;-83
2023/07/21 05:53:43;;;;;;;2.63;2.28;;;;;;;37.06;47.99;94638.78;4992437;28;20277;-85
2023/07/21 05:56:08;;;;;;;3.42;3.10;;;;;;;38.08;44.91;94635.22;4989725;28;20073;-86
2023/07/21 05:58:36;;;;;;;3.40;2.47;;;;;;;37.92;45.55;94633.28;4990958;28;20471;-86
2023/07/21 06:01:02;;;;;;;3.45;3.15;;;;;;;38.23;44.65;94637.09;4989750;28;20026;-85
2023/07/21 06:03:28;;;;;;;3.75;2.17;;;;;;;37.80;45.83;94636.06;4990854;28;20018;-85
2023/07/21 06:05:53;;;;;;;4.93;2.53;;;;;;;38.85;43.62;94636.13;4991177;28;20484;-85
2023/07/21 06:08:19;;;;;;;3.47;2.20;;;;;;;39.10;43.09;94631.19;4990804;28;20113;-85
2023/07/21 06:10:44;;;;;;;;;;;;;;;39.31;41.64;94637.00;4990914;28;20034;-86
2023/07/21 06:13:10;;;;;;;8.80;1.90;;;;;;;38.82;42.06;94636.84;4990215;28;19944;-85
2023/07/21 06:15:36;;;;;;;;;;;;;;;39.37;42.27;94643.69;4991355;28;20054;-86
2023/07/21 06:18:03;;;;;;;3.10;2.15;;;;;;;39.54;40.40;94640.50;4989378;28;19914;-85
2023/07/21 06:20:28;;;;;;;3.67;2.08;;;;;;;40.07;39.41;94641.41;4990492;28;20034;-85
2023/07/21 06:22:54;;;;;;;2.58;2.38;;;;;;;38.61;43.11;94642.59;4990880;28;20026;-85
2023/07/21 06:25:19;;;;;;;6.22;2.60;;;;;;;38.65;42.87;94638.03;4990817;28;20547;-84
2023/07/21 06:27:47;;;;;;;7.30;3.95;;;;;;;37.69;44.57;94632.34;4989689;28;20129;-84
2023/07/21 06:30:13;;;;;;;6.90;4.13;;;;;;;38.80;41.77;94634.47;4974044;28;20513;-84
2023/07/21 06:32:40;;;;;;;3.67;3.38;;;;;;;38.54;43.81;94636.22;4991405;28;20122;-85
2023/07/21 06:35:07;;;;;;;8.43;3.30;;;;;;;35.16;53.54;94634.44;4989521;28;20433;-84
2023/07/21 06:37:33;;;;;;;5.35;3.60;;;;;;;33.55;59.12;94627.94;4990216;28;20527;-84
2023/07/21 06:40:01;;;;;;;7.43;2.75;;;;;;;33.41;61.02;94628.16;4972980;28;20448;-85
2023/07/21 06:42:27;;;;;;;8.27;3.42;;;;;;;33.80;59.01;94629.75;4991710;28;20109;-86
2023/07/21 06:44:52;;;;;;;4.53;2.77;;;;;;;33.81;58.87;94620.56;4989047;28;20141;-82
2023/07/21 06:47:19;;;;;;;5.73;3.07;;;;;;;34.17;56.90;94625.41;4991370;28;20032;-87
2023/07/21 06:49:45;;;;;;;8.43;3.45;;;;;;;36.49;51.79;94610.16;4991728;28;20038;-86
2023/07/21 06:52:10;;;;;;;4.45;3.20;;;;;;;38.22;46.49;94608.44;4989223;28;20023;-86
2023/07/21 06:54:38;;;;;;;5.20;3.03;;;;;;;36.96;45.58;94619.22;4990728;28;20034;-86
2023/07/21 06:57:05;;;;;;;5.30;3.40;;;;;;;37.80;45.01;94609.00;4988664;28;20168;-85
2023/07/21 06:59:30;;;;;;;7.67;3.17;;;;;;;38.87;43.83;94615.66;4990164;28;20033;-84
2023/07/21 07:01:57;;;;;;;5.07;3.28;;;;;;;38.40;42.32;94615.06;4988470;28;20038;-87
2023/07/21 07:04:22;;;;;;;5.20;3.78;;;;;;;36.66;45.92;94603.72;4990149;28;20033;-86
2023/07/21 07:06:48;;;;;;;21.83;3.83;;;;;;;34.19;55.80;94607.06;4991319;28;20476;-92
2023/07/21 07:09:14;;;;;;;6.78;3.28;;;;;;;33.66;59.73;94600.41;4974338;28;20034;-93
2023/07/21 07:11:39;;;;;;;4.85;3.17;;;;;;;31.65;64.89;94597.72;4991879;28;20030;-93
2023/07/21 07:14:05;;;;;;;6.95;3.28;;;;;;;32.18;64.56;94600.19;4973275;28;20064;-87
2023/07/21 07:16:30;;;;;;;8.93;3.53;;;;;;;32.55;63.68;94604.13;4990877;28;20031;-91
2023/07/21 07:18:56;;;;;;;6.82;3.28;;;;;;;32.85;63.73;94613.09;4988643;28;20065;-93
2023/07/21 07:21:21;;;;;;;7.70;3.45;;;;;;;32.64;66.15;94602.25;4994636;28;20069;-83
2023/07/21 07:23:47;;;;;;;9.43;2.75;;;;;;;32.27;62.72;94603.66;4991924;28;20019;-90
2023/07/21 07:26:12;;;;;;;7.57;3.30;;;;;;;31.94;65.84;94589.09;4994065;28;20037;-93
2023/07/21 07:28:38;;;;;;;4.20;2.58;;;;;;;31.44;69.69;94606.56;5000034;28;20027;-96
2023/07/21 07:31:04;;;;;;;5.47;2.90;;;;;;;32.17;69.22;94600.50;5234541;23;20296;-96
2023/07/21 07:36:06;;;;;;;4.55;3.10;;;;;;;30.29;74.22;94603.81;5034814;28;20076;-93
2023/07/21 07:38:32;;;;;;;2.70;2.50;;;;;;;31.19;73.04;94589.31;5010848;28;20029;-96
2023/07/21 07:41:09;;;;;;;6.15;3.47;;;;;;;32.27;68.31;94600.97;5015452;28;20104;-96
2023/07/21 07:43:35;;;;;;;5.72;2.42;;;;;;;31.70;65.59;94602.91;5002894;28;20473;-94
2023/07/21 07:46:03;;;;;;;5.00;2.75;;;;;;;31.76;66.75;94596.31;5007966;28;20050;-94
2023/07/21 07:48:29;;;;;;;4.82;3.17;;;;;;;31.74;65.41;94590.47;5002136;28;20053;-94
2023/07/21 07:50:55;;;;;;;6.82;2.85;;;;;;;32.16;66.87;94588.19;5003936;28;20025;-96
2023/07/21 07:53:21;;;;;;;4.35;2.38;;;;;;;32.44;67.01;94594.03;5021981;28;20034;-91
2023/07/21 07:55:46;;;;;;;6.07;2.60;;;;;;;32.28;57.34;94586.47;5000584;28;20494;-87
2023/07/21 07:58:12;;;;;;;5.03;2.13;;;;;;;31.78;60.91;94542.41;5250961;23;20089;-96
2023/07/21 08:00:41;;;;;;;4.68;2.40;;;;;;;31.81;63.33;94550.63;5009606;28;20037;-96
2023/07/21 08:03:09;;;;;;;3.75;2.35;;;;;;;32.19;59.28;94552.72;5005646;28;20061;-96
2023/07/21 08:05:35;;;;;;;2.45;2.25;;;;;;;32.23;58.22;94567.06;5020928;28;20025;-95
2023/07/21 08:08:02;;;;;;;6.15;2.75;;;;;;;32.27;59.14;94566.09;5001805;28;20044;-87
2023/07/21 08:10:28;;;;;;;5.53;2.97;;;;;;;31.49;60.25;94609.94;5017489;28;20048;-87
2023/07/21 08:12:58;;;;;;;2.67;2.47;;;;;;;30.98;65.91;94612.38;5019162;28;20029;-96
2023/07/21 08:15:24;;;;;;;2.67;2.45;;;;;;;32.17;59.46;94595.16;5026530;28;20523;-96
2023/07/21 08:17:50;;;;;;;3.65;2.10;;;;;;;30.86;63.14;94604.09;5012144;23;20058;-96
2023/07/21 08:20:18;;;;;;;4.10;2.22;;;;;;;31.54;62.61;94598.28;5014070;28;20038;-93
2023/07/21 08:22:50;;;;;;;3.13;2.45;;;;;;;31.26;62.40;94597.69;5011013;28;20056;-92
2023/07/21 08:25:15;;;;;;;4.35;2.25;;;;;;;31.50;63.23;94587.41;5078532;23;20054;-95
2023/07/21 08:27:41;;;;;;;4.10;2.58;;;;;;;32.20;65.56;94586.47;4980626;28;20052;-96
2023/07/21 08:30:10;;;;;;;2.83;2.60;;;;;;;31.75;63.18;94585.91;5004671;28;20046;-94
2023/07/21 08:32:37;;;;;;;3.70;2.15;;;;;;;29.96;65.37;94592.53;4999962;28;20095;-94
2023/07/21 08:35:03;;;;;;;3.92;2.72;;;;;;;31.44;63.92;94591.31;5005685;28;20128;-96
2023/07/21 08:37:30;;;;;;;3.85;2.17;;;;;;;31.08;60.48;94594.16;5001799;28;20018;-94
2023/07/21 08:39:55;;;;;;;4.70;2.20;;;;;;;32.00;59.46;94590.53;5261347;22;21076;-92
2023/07/21 08:45:04;;;;;;;3.25;2.17;;;;;;;30.67;60.53;94594.38;5030412;22;20062;-93
2023/07/21 08:47:30;;;;;;;5.43;2.67;;;;;;;31.96;67.32;94586.88;4963554;28;20038;-95
2023/07/21 08:49:55;;;;;;;2.97;2.28;;;;;;;32.31;63.49;94593.09;5161295;23;20058;-96
2023/07/21 08:52:21;;;;;;;3.50;2.53;;;;;;;31.61;62.20;94580.69;4963785;28;20038;-92
2023/07/21 08:54:46;;;;;;;3.47;2.22;;;;;;;30.57;63.20;94578.56;4960589;28;20031;-94
2023/07/21 08:57:12;;;;;;;4.75;2.25;;;;;;;30.94;66.37;94588.06;5005658;23;20050;-96
2023/07/21 08:59:39;;;;;;;3.50;2.70;;;;;;;31.50;65.04;94592.75;4991272;28;20039;-96
2023/07/21 09:02:04;;;;;;;2.30;2.10;;;;;;;31.65;67.52;94591.56;4985719;28;20037;-93
2023/07/21 09:04:30;;;;;;;6.60;2.90;;;;;;;32.28;64.00;94588.34;4980291;28;20416;-95
2023/07/21 09:06:58;;;;;;;4.50;2.60;;;;;;;30.19;72.83;94586.13;4992463;28;20022;-88
2023/07/21 09:09:31;;;;;;;4.47;2.67;;;;;;;31.27;67.66;94572.50;4975276;28;20034;-95
2023/07/21 09:12:15;;;;;;;7.35;2.63;;;;;;;31.85;67.78;94586.38;4974508;28;20106;-89
2023/07/21 09:14:42;;;;;;;3.50;2.92;;;;;;;31.74;68.79;94582.44;4990286;28;20054;-92
2023/07/21 09:17:10;;;;;;;4.72;2.45;;;;;;;32.21;68.10;94572.72;4972933;28;20472;-90
2023/07/21 09:19:36;;;;;;;2.75;2.10;;;;;;;30.79;67.68;94575.84;4973088;28;20108;-90
2023/07/21 09:22:01;;;;;;;5.43;2.92;;;;;;;31.17;68.23;94562.06;4972956;28;20030;-90
2023/07/21 09:24:27;;;;;;;4.70;2.60;;;;;;;32.04;66.54;94585.34;4974316;28;20026;-92
2023/07/21 09:27:12;;;;;;;11.45;2.42;;;;;;;32.08;72.82;94572.88;4989852;28;20040;-92
2023/07/21 09:29:37;;;;;;;3.60;2.60;;;;;;;32.17;68.49;94577.13;4990049;28;20034;-93
2023/07/21 09:32:16;;;;;;;3.85;2.63;;;;;;;31.88;65.43;94561.63;4989567;28;20040;-95
2023/07/21 09:35:00;;;;;;;7.22;2.20;;;;;;;32.75;65.81;94565.91;4991780;28;20030;-87
2023/07/21 09:37:26;;;;;;;4.32;2.75;;;;;;;32.10;64.00;94559.97;4973336;28;20050;-89
2023/07/21 09:40:00;;;;;;;4.72;2.72;;;;;;;32.58;64.90;94560.59;4972289;28;20065;-93
2023/07/21 09:42:27;;;;;;;3.25;2.22;;;;;;;31.36;66.44;94559.94;4989013;28;20023;-90
2023/07/21 09:44:53;;;;;;;3.15;2.65;;;;;;;31.94;63.51;94553.47;4997725;23;20054;-87
2023/07/21 09:47:20;;;;;;;2.75;2.20;;;;;;;32.06;66.03;94549.06;4953055;28;20023;-96
2023/07/21 09:49:48;;;;;;;3.20;2.40;;;;;;;32.73;64.58;94560.09;4972122;28;20056;-89
2023/07/21 09:52:15;;;;;;;6.13;2.63;;;;;;;32.17;63.53;94558.38;4954426;28;20085;-88
2023/07/21 09:54:45;;;;;;;2.78;2.53;;;;;;;31.37;62.13;94555.38;4968989;28;20329;-93
2023/07/21 09:57:12;;;;;;;5.18;2.20;;;;;;;32.52;65.01;94553.00;4956715;28;20035;-92
2023/07/21 09:59:38;;;;;;;2.80;2.60;;;;;;;32.41;59.79;94536.44;4953668;28;20405;-92
2023/07/21 10:02:06;;;;;;;3.40;2.50;;;;;;;32.05;61.06;94549.38;4967295;28;20039;-86
2023/07/21 10:04:32;;;;;;;2.72;2.30;;;;;;;32.37;61.59;94538.16;4953813;28;20027;-95
2023/07/21 10:06:58;;;;;;;4.38;2.83;;;;;;;32.04;63.67;94542.47;4968145;28;20062;-91
2023/07/21 10:09:26;;;;;;;3.95;2.83;;;;;;;31.37;64.29;94526.69;4951821;28;20038;-85
2023/07/21 10:11:52;;;;;;;3.28;2.38;;;;;;;31.94;62.55;94532.00;4953809;28;20096;-95
2023/07/21 10:14:31;;;;;;;2.70;1.92;;;;;;;31.79;64.16;94544.75;4968519;28;20027;-90
2023/07/21 10:16:56;;;;;;;3.92;2.22;;;;;;;31.39;60.79;94539.78;4952693;28;20069;-90
2023/07/21 10:19:22;;;;;;;2.65;2.45;;;;;;;31.89;61.75;94522.22;4966558;28;20117;-85
2023/07/21 10:21:49;;;;;;;4.43;2.78;;;;;;;31.90;61.27;94534.53;4952574;28;20034;-88
2023/07/21 10:24:27;;;;;;;3.17;2.15;;;;;;;32.66;60.65;94538.31;4967297;28;20499;-93
2023/07/21 10:27:16;;;;;;;5.65;2.72;;;;;;;32.22;57.28;94538.66;4953054;28;20030;-88
2023/07/21 10:29:42;;;;;;;3.92;2.17;;;;;;;32.60;55.58;94542.28;4970420;28;20027;-90
2023/07/21 10:32:09;;;;;;;3.13;2.20;;;;;;;32.27;58.50;94507.09;4955207;28;20033;-92
2023/07/21 10:34:41;;;;;;;3.78;1.98;;;;;;;31.99;57.31;94521.91;4972265;28;20420;-95
2023/07/21 10:37:07;;;;;;;3.35;2.42;;;;;;;32.36;54.80;94525.88;4954840;28;20035;-96
2023/07/21 10:39:34;;;;;;;7.68;2.30;;;;;;;31.92;54.74;94526.19;4958256;28;20126;-88
2023/07/21 10:42:05;;;;;;;4.43;2.10;;;;;;;32.39;56.64;94509.16;4955400;28;20050;-87
2023/07/21 10:44:49;;;;;;;7.13;2.22;;;;;;;32.14;51.86;94526.06;4955713;28;20289;-90
2023/07/21 10:47:19;;;;;;;6.35;1.92;;;;;;;32.51;52.90;94525.38;4973193;28;20109;-87
2023/07/21 10:49:46;;;;;;;3.60;1.98;;;;;;;32.69;53.85;94529.63;4953878;28;20034;-88
2023/07/21 10:52:12;;;;;;;4.05;2.50;;;;;;;32.02;53.64;94517.81;4955298;28;20125;-85
2023/07/21 10:54:38;;;;;;;2.90;2.13;;;;;;;32.36;53.99;94517.84;4970064;28;20038;-90
2023/07/21 10:57:04;;;;;;;5.90;2.72;;;;;;;32.35;53.47;94511.69;4955609;28;20034;-87
2023/07/21 10:59:34;;;;;;;4.82;2.38;;;;;;;31.87;52.90;94505.69;4955150;28;20090;-84
2023/07/21 11:02:02;;;;;;;3.63;2.22;;;;;;;32.29;55.13;94512.94;4970123;28;20030;-90
2023/07/21 11:04:29;;;;;;;6.25;2.92;;;;;;;32.74;53.36;94510.66;4971528;28;20085;-89
2023/07/21 11:06:57;;;;;;;5.75;2.47;;;;;;;33.15;54.48;94506.59;4953623;28;20054;-88
2023/07/21 11:09:23;;;;;;;5.65;2.70;;;;;;;32.72;52.14;94512.09;4954781;28;20127;-84
2023/07/21 11:11:50;;;;;;;3.22;2.38;;;;;;;32.81;52.26;94507.50;4969031;28;20042;-86
2023/07/21 11:14:23;;;;;;;8.23;2.37;;;;;;;33.34;54.50;94491.63;4971220;28;20118;-85
2023/07/21 11:17:02;;;;;;;3.50;2.15;;;;;;;33.23;55.09;94513.81;4954190;28;20536;-84
2023/07/21 11:19:32;;;;;;;4.95;2.50;;;;;;;32.49;54.19;94514.19;4969786;28;20026;-88
2023/07/21 11:21:58;;;;;;;5.05;3.17;;;;;;;31.61;53.90;94504.88;4954948;28;20034;-88
2023/07/21 11:24:25;;;;;;;4.57;2.50;;;;;;;32.73;57.07;94514.47;4953715;28;20582;-88
2023/07/21 11:26:56;;;;;;;2.65;2.28;;;;;;;33.24;51.97;94507.31;4971290;28;20030;-94
2023/07/21 11:29:22;;;;;;;6.28;2.30;;;;;;;32.75;54.37;94504.19;4953300;28;20355;-89
2023/07/21 11:31:47;;;;;;;3.67;2.45;;;;;;;32.70;51.63;94493.63;4954802;28;20033;-89
2023/07/21 11:34:18;;;;;;;4.45;2.50;;;;;;;32.84;53.84;94504.97;4954201;28;20085;-85